地図

経路データ

SID SEASON NUMBER BASIN SUBBASIN NAME ISO_TIME NATURE LAT LON WMO_WIND WMO_PRES WMO_AGENCY TRACK_TYPE DIST2LAND LANDFALL IFLAG USA_AGENCY USA_ATCF_ID USA_LAT USA_LON USA_RECORD USA_STATUS USA_WIND USA_PRES USA_SSHS USA_R34_NE USA_R34_SE USA_R34_SW USA_R34_NW USA_R50_NE USA_R50_SE USA_R50_SW USA_R50_NW USA_R64_NE USA_R64_SE USA_R64_SW USA_R64_NW USA_POCI USA_ROCI USA_RMW USA_EYE TOKYO_LAT TOKYO_LON TOKYO_GRADE TOKYO_WIND TOKYO_PRES TOKYO_R50_DIR TOKYO_R50_LONG TOKYO_R50_SHORT TOKYO_R30_DIR TOKYO_R30_LONG TOKYO_R30_SHORT TOKYO_LAND CMA_LAT CMA_LON CMA_CAT CMA_WIND CMA_PRES HKO_LAT HKO_LON HKO_CAT HKO_WIND HKO_PRES NEWDELHI_LAT NEWDELHI_LON NEWDELHI_GRADE NEWDELHI_WIND NEWDELHI_PRES NEWDELHI_CI NEWDELHI_DP NEWDELHI_POCI REUNION_LAT REUNION_LON REUNION_TYPE REUNION_WIND REUNION_PRES REUNION_TNUM REUNION_CI REUNION_RMW REUNION_R34_NE REUNION_R34_SE REUNION_R34_SW REUNION_R34_NW REUNION_R50_NE REUNION_R50_SE REUNION_R50_SW REUNION_R50_NW REUNION_R64_NE REUNION_R64_SE REUNION_R64_SW REUNION_R64_NW BOM_LAT BOM_LON BOM_TYPE BOM_WIND BOM_PRES BOM_TNUM BOM_CI BOM_RMW BOM_R34_NE BOM_R34_SE BOM_R34_SW BOM_R34_NW BOM_R50_NE BOM_R50_SE BOM_R50_SW BOM_R50_NW BOM_R64_NE BOM_R64_SE BOM_R64_SW BOM_R64_NW BOM_ROCI BOM_POCI BOM_EYE BOM_POS_METHOD BOM_PRES_METHOD NADI_LAT NADI_LON NADI_CAT NADI_WIND NADI_PRES WELLINGTON_LAT WELLINGTON_LON WELLINGTON_WIND WELLINGTON_PRES DS824_LAT DS824_LON DS824_STAGE DS824_WIND DS824_PRES TD9636_LAT TD9636_LON TD9636_STAGE TD9636_WIND TD9636_PRES TD9635_LAT TD9635_LON TD9635_WIND TD9635_PRES TD9635_ROCI NEUMANN_LAT NEUMANN_LON NEUMANN_CLASS NEUMANN_WIND NEUMANN_PRES MLC_LAT MLC_LON MLC_CLASS MLC_WIND MLC_PRES USA_GUST BOM_GUST BOM_GUST_PER REUNION_GUST REUNION_GUST_PER USA_SEAHGT USA_SEARAD_NE USA_SEARAD_SE USA_SEARAD_SW USA_SEARAD_NW STORM_SPEED STORM_DIR
1991243N05172 1991 58 WP MM IVY 1991-08-31 00:00:00 NR 5.00000 171.900 main 1942 1862 O_____________ jtwc_wp WP171991 5.00000 171.900 15 -1 37 282
1991243N05172 1991 58 WP MM IVY 1991-08-31 03:00:00 NR 5.37300 170.089 main 1859 1791 P_____________ WP171991 5.37300 170.089 17 -1 38 282
1991243N05172 1991 58 WP MM IVY 1991-08-31 06:00:00 NR 5.80000 168.200 main 1790 1754 O_____________ jtwc_wp WP171991 5.80000 168.200 20 -1 39 284
1991243N05172 1991 58 WP MM IVY 1991-08-31 09:00:00 NR 6.29561 166.256 main 1756 1733 P_____________ WP171991 6.29561 166.256 17 -1 36 285
1991243N05172 1991 58 WP MM IVY 1991-08-31 12:00:00 NR 6.70000 164.700 main 1735 1705 O_____________ jtwc_wp WP171991 6.70000 164.700 15 -1 23 284
1991243N05172 1991 58 WP MM IVY 1991-08-31 15:00:00 NR 6.85883 163.970 main 1714 1689 P_____________ WP171991 6.85883 163.970 15 -1 11 280
1991243N05172 1991 58 WP MM IVY 1991-08-31 18:00:00 NR 6.90000 163.600 main 1689 1658 O_____________ jtwc_wp WP171991 6.90000 163.600 15 -1 9 276
1991243N05172 1991 58 WP MM IVY 1991-08-31 21:00:00 NR 6.94988 163.065 main 1658 1628 P_____________ WP171991 6.94988 163.065 15 -1 11 275
1991243N05172 1991 58 WP MM IVY 1991-09-01 00:00:00 NR 7.00000 162.500 main 1628 1594 O_____________ jtwc_wp WP171991 7.00000 162.500 15 -1 12 277
1991243N05172 1991 58 WP MM IVY 1991-09-01 03:00:00 NR 7.09997 161.865 main 1594 1554 P_____________ WP171991 7.09997 161.865 15 -1 13 279
1991243N05172 1991 58 WP MM IVY 1991-09-01 06:00:00 NR 7.20000 161.200 main 1554 1522 O_____________ jtwc_wp WP171991 7.20000 161.200 15 -1 13 277
1991243N05172 1991 58 WP MM IVY 1991-09-01 09:00:00 NR 7.25730 160.572 main 1524 1476 P_____________ WP171991 7.25730 160.572 15 -1 13 274
1991243N05172 1991 58 WP MM IVY 1991-09-01 12:00:00 NR 7.30000 159.900 main 1476 1432 O_____________ jtwc_wp WP171991 7.30000 159.900 15 -1 14 273
1991243N05172 1991 58 WP MM IVY 1991-09-01 15:00:00 NR 7.33497 159.122 main 1425 1388 P_____________ WP171991 7.33497 159.122 17 -1 16 274
1991243N05172 1991 58 WP MM IVY 1991-09-01 18:00:00 NR 7.40000 158.300 main 1388 1352 O_____________ jtwc_wp WP171991 7.40000 158.300 20 -1 17 277
1991243N05172 1991 58 WP MM IVY 1991-09-01 21:00:00 NR 7.53500 157.470 main 1352 1320 P_____________ WP171991 7.53500 157.470 20 -1 16 278
1991243N05172 1991 58 WP MM IVY 1991-09-02 00:00:00 NR 7.64000 156.660 main 1320 1305 O__O__________ jtwc_wp WP171991 7.70000 156.700 20 -1 7.40000 156.500 TD 25 995 14 280
1991243N05172 1991 58 WP MM IVY 1991-09-02 03:00:00 NR 7.77825 156.083 main 1310 1291 P__P__________ WP171991 7.84233 156.055 22 -1 7.65007 156.140 TD 25 995 11 282
1991243N05172 1991 58 WP MM IVY 1991-09-02 06:00:00 TS 7.85556 155.600 1002 tokyo main 1297 1284 OOOO__________ jtwc_wp WP171991 8.00000 155.500 25 -1 7.50000 155.500 2 1002 0 0 0 7.50000 155.500 1 29 1002 7.90000 155.800 TD 25 995 10 283
1991243N05172 1991 58 WP MM IVY 1991-09-02 09:00:00 TS 7.99839 155.138 main 1286 1282 PPPP__________ WP171991 8.17749 154.947 27 -1 7.66021 154.975 2 1002 0 0 7.67521 154.975 1 29 1001 8.14996 155.492 TD 25 995 9 291
1991243N05172 1991 58 WP MM IVY 1991-09-02 12:00:00 TS 8.18571 154.743 1002 tokyo main 1292 1292 OOOO__________ jtwc_wp WP171991 8.40000 154.500 30 -1 7.90000 154.600 2 1002 0 0 0 7.90000 154.600 1 29 1000 8.40000 155.200 TD 25 995 8 307
1991243N05172 1991 58 WP MM IVY 1991-09-02 15:00:00 TS 8.45615 154.515 main 1317 1317 PPPP__________ WP171991 8.69237 154.220 30 -1 8.26990 154.462 2 1001 0 0 8.21240 154.462 1 29 1000 8.64994 154.915 TD 27 992 7 328
1991243N05172 1991 58 WP MM IVY 1991-09-02 18:00:00 TS 8.80000 154.350 35 1000 tokyo main 1345 1342 OOOO__________ jtwc_wp WP171991 9.00000 154.000 30 -1 8.70000 154.400 3 35 1000 0 9 40 40 0 8.60000 154.400 1 29 1000 8.90000 154.600 TD 30 990 8 328
1991243N05172 1991 58 WP MM IVY 1991-09-02 21:00:00 TS 9.13749 154.094 main 1369 1369 PPPP__________ WP171991 9.26497 153.715 32 -1 9.09999 154.222 3 35 1000 0 9 40 40 9.05000 154.223 1 33 997 9.13500 154.215 TD 30 990 9 321
1991243N05172 1991 58 WP MM IVY 1991-09-03 00:00:00 TS 9.47500 153.800 35 1000 tokyo main 1404 1404 OOOO__________ jtwc_wp WP171991 9.50000 153.400 35 0 9.50000 154.000 3 35 1000 0 9 40 40 0 9.50000 154.000 2 38 995 9.40000 153.800 TD 30 990 9 320
1991243N05172 1991 58 WP MM IVY 1991-09-03 03:00:00 TS 9.81869 153.508 main 1430 1430 PPPP__________ WP171991 9.69996 153.065 35 0 9.93741 153.787 3 35 998 0 9 40 40 9.88745 153.772 2 38 995 9.74993 153.408 TD 30 990 9 317
1991243N05172 1991 58 WP MM IVY 1991-09-03 06:00:00 TS 10.1250 153.175 35 996 tokyo main 1456 1456 OOOO__________ jtwc_wp WP171991 9.90000 152.700 35 0 10.3000 153.500 3 35 996 0 9 40 40 0 10.2000 153.500 2 38 995 10.1000 153.000 TD 30 990 9 307
1991243N05172 1991 58 WP MM IVY 1991-09-03 09:00:00 TS 10.3506 152.781 main 1482 1479 PPPP__________ WP171991 10.1424 152.322 37 0 10.4801 153.072 3 37 995 0 9 50 50 10.4225 153.172 2 38 992 10.3575 152.557 TD 30 990 9 298
1991243N05172 1991 58 WP MM IVY 1991-09-03 12:00:00 TS 10.5500 152.350 40 994 tokyo main 1499 1497 OOOO__________ jtwc_wp WP171991 10.4000 151.900 40 0 10.6000 152.600 3 40 994 0 9 60 60 0 10.6000 152.800 2 38 990 10.6000 152.100 TD 30 990 10 297
1991243N05172 1991 58 WP MM IVY 1991-09-03 15:00:00 TS 10.7893 151.924 main 1516 1515 PPPP__________ WP171991 10.6500 151.415 40 0 10.8224 152.193 3 40 994 0 9 60 60 10.7923 152.437 2 38 990 10.8924 151.650 TD 30 990 10 299
1991243N05172 1991 58 WP MM IVY 1991-09-03 18:00:00 TS 11.0250 151.475 40 994 tokyo main 1536 1533 OOOO__________ jtwc_wp WP171991 10.9000 150.900 40 0 11.0000 151.800 3 40 994 0 9 60 60 0 11.0000 152.000 2 38 990 11.2000 151.200 TD 30 990 10 294
1991243N05172 1991 58 WP MM IVY 1991-09-03 21:00:00 TS 11.1969 150.985 main 1542 1537 PPPP__________ WP171991 11.1350 150.392 42 0 10.9324 151.407 3 40 993 0 9 60 60 11.2277 151.400 2 43 987 11.4925 150.742 TD 30 990 10 293
1991243N05172 1991 58 WP MM IVY 1991-09-04 00:00:00 TS 11.4250 150.500 40 992 tokyo main 1551 1551 OOOO__________ jtwc_wp WP171991 11.4000 149.900 45 0 11.0000 151.000 3 40 992 0 9 60 60 0 11.5000 150.800 3 48 985 11.8000 150.300 TD 30 990 11 304
1991243N05172 1991 58 WP MM IVY 1991-09-04 03:00:00 TS 11.8124 150.058 main 1585 1583 PPPP__________ WP171991 11.7200 149.405 45 0 11.5824 150.565 3 40 992 0 9 70 70 11.8272 150.385 3 48 985 12.1200 149.877 TD 30 990 12 316
1991243N05172 1991 58 WP MM IVY 1991-09-04 06:00:00 TS 12.2750 149.650 40 992 tokyo main 1633 1631 OOOO__________ jtwc_wp WP171991 12.1000 149.000 45 0 12.3000 150.100 3 40 992 0 9 80 80 0 12.2000 150.000 3 48 985 12.5000 149.500 TD 30 990 12 319
1991243N05172 1991 58 WP MM IVY 1991-09-04 09:00:00 TS 12.7325 149.249 main 1670 1670 PPPP__________ WP171991 12.5349 148.762 47 0 12.7951 149.577 3 42 991 0 9 80 80 12.5852 149.478 3 48 985 13.0149 149.178 TD 32 987 12 321
1991243N05172 1991 58 WP MM IVY 1991-09-04 12:00:00 TS 13.1750 148.900 45 990 tokyo main 1722 1721 OOOO__________ jtwc_wp WP171991 13.0000 148.600 50 0 13.2000 149.100 3 45 990 0 9 80 80 0 13.0000 149.000 3 48 985 13.5000 148.900 TS 35 985 10 323
1991243N05172 1991 58 WP MM IVY 1991-09-04 15:00:00 TS 13.5540 148.623 main 1763 1763 PPPP__________ WP171991 13.4350 148.392 52 0 13.5737 148.752 3 45 990 0 9 90 90 13.4498 148.712 3 48 985 13.7575 148.635 TS 40 982 9 327
1991243N05172 1991 58 WP MM IVY 1991-09-04 18:00:00 TS 13.9250 148.400 45 990 tokyo main 1795 1795 OOOO__________ jtwc_wp WP171991 13.9000 148.200 55 0 13.9000 148.500 3 45 990 0 9 100 100 0 13.9000 148.500 3 48 985 14.0000 148.400 TS 45 980 9 332
1991243N05172 1991 58 WP MM IVY 1991-09-04 21:00:00 TS 14.3256 148.194 50 985 tokyo main 1839 1839 POPP__________ WP171991 14.4350 148.050 60 0 14.2000 148.300 4 50 985 0 9 110 110 0 14.2625 148.242 3 48 985 14.4050 148.185 TS 47 977 10 339
1991243N05172 1991 58 WP MM IVY 1991-09-05 00:00:00 TS 14.8500 148.025 50 985 tokyo main 1905 1905 OOOO__________ jtwc_wp WP171991 15.0000 147.900 65 1 14.8000 148.200 4 50 985 0 9 110 110 0 14.7000 148.000 3 48 985 14.9000 148.000 STS 50 975 11 344
1991243N05172 1991 58 WP MM IVY 1991-09-05 03:00:00 TS 15.4167 147.860 main 1961 1961 PPPP__________ WP171991 15.5275 147.715 65 1 15.3795 148.047 4 52 982 0 9 175 175 15.3549 147.807 3 53 982 15.4049 147.872 STS 52 972 13 343
1991243N05172 1991 58 WP MM IVY 1991-09-05 06:00:00 TS 16.0500 147.650 55 980 tokyo main 2039 2027 OOOO__________ jtwc_wp WP171991 16.1000 147.500 65 1 16.0000 147.800 4 55 980 9 50 50 9 240 240 0 16.1000 147.600 3 58 980 16.0000 147.700 STS 55 970 14 340
1991243N05172 1991 58 WP MM IVY 1991-09-05 09:00:00 TS 16.7393 147.368 main 2105 2066 PPPP__________ WP171991 16.7624 147.280 67 1 16.7050 147.452 4 57 980 9 75 55 9 345 240 16.7773 147.352 3 63 975 16.7125 147.387 STS 57 967 16 337
1991243N05172 1991 58 WP MM IVY 1991-09-05 12:00:00 TS 17.5000 147.000 60 980 tokyo main 2066 1968 OOOO__________ jtwc_wp WP171991 17.5000 147.000 70 1 17.5000 147.000 4 60 980 2 100 60 2 450 240 0 17.5000 147.000 4 68 970 17.5000 147.000 STS 60 965 18 333
1991243N05172 1991 58 WP MM IVY 1991-09-05 15:00:00 TS 18.3358 146.533 main 1965 1866 PPPP__________ WP171991 18.2924 146.637 72 1 18.4078 146.428 4 62 977 2 100 60 2 450 240 18.3429 146.443 4 68 970 18.2999 146.622 STS 62 962 19 332
1991243N05172 1991 58 WP MM IVY 1991-09-05 18:00:00 TS 19.1750 146.050 65 975 tokyo main 1856 1768 OOOO__________ jtwc_wp WP171991 19.1000 146.200 75 1 19.3000 145.900 5 65 975 2 100 60 2 450 240 0 19.2000 145.900 4 68 970 19.1000 146.200 T 65 960 18 334
1991243N05172 1991 58 WP MM IVY 1991-09-05 21:00:00 TS 19.9233 145.702 main 1768 1681 PPPP__________ WP171991 19.8648 145.730 80 1 20.0142 145.670 5 67 970 2 110 90 2 425 320 19.9567 145.670 4 68 970 19.8573 145.737 T 67 957 16 334
1991243N05172 1991 58 WP MM IVY 1991-09-06 00:00:00 TS 20.6500 145.300 70 965 tokyo main 1671 1578 OOOO__________ jtwc_wp WP171991 20.6000 145.200 85 2 20.7000 145.400 5 70 965 9 120 120 9 400 400 0 20.7000 145.400 4 68 970 20.6000 145.200 T 70 955 18 328
1991243N05172 1991 58 WP MM IVY 1991-09-06 03:00:00 TS 21.4386 144.701 main 1578 1483 PPPP__________ WP171991 21.3221 144.644 87 2 21.5227 144.783 5 72 962 9 120 120 9 400 400 21.5376 144.783 4 72 967 21.3722 144.595 T 72 952 20 321
1991243N05172 1991 58 WP MM IVY 1991-09-06 06:00:00 TS 22.1750 143.975 75 960 tokyo main 1472 1395 OOOO__________ jtwc_wp WP171991 22.0000 144.000 90 2 22.3000 144.000 5 75 960 9 120 120 9 400 400 0 22.3000 144.000 4 77 965 22.1000 143.900 T 75 950 20 313
1991243N05172 1991 58 WP MM IVY 1991-09-06 09:00:00 TS 22.7732 143.168 main 1384 1298 PPPP__________ WP171991 22.6228 143.207 95 2 22.8945 143.172 5 77 957 9 125 125 9 400 400 22.8376 143.192 4 77 962 22.7377 143.100 T 80 947 19 307
1991243N05172 1991 58 WP MM IVY 1991-09-06 12:00:00 TS 23.3000 142.375 80 955 tokyo main 1298 1215 OOOO__________ jtwc_wp WP171991 23.2000 142.400 100 3 23.4000 142.400 5 80 955 9 130 130 9 400 400 0 23.3000 142.400 4 77 960 23.3000 142.300 ST 85 945 17 308
1991243N05172 1991 58 WP MM IVY 1991-09-06 15:00:00 TS 23.8303 141.711 85 950 tokyo main 1215 1138 POPP__________ WP171991 23.7645 141.719 100 3 23.9000 141.800 5 85 950 9 150 150 9 400 400 0 23.8421 141.712 4 82 955 23.8146 141.612 ST 87 942 16 311
1991243N05172 1991 58 WP MM IVY 1991-09-06 18:00:00 TS 24.3500 141.075 85 945 tokyo main 1128 1062 OOOO__________ jtwc_wp WP171991 24.3000 141.100 100 3 24.4000 141.100 5 85 945 9 150 150 9 400 400 0 24.4000 141.100 5 87 950 24.3000 141.000 ST 90 940 15 314
1991243N05172 1991 58 WP MM IVY 1991-09-06 21:00:00 TS 24.8736 140.504 90 940 tokyo main 1052 980 POPP__________ WP171991 24.8074 140.470 105 3 24.9000 140.600 5 90 940 9 150 150 9 400 400 0 24.9798 140.520 5 87 950 24.8072 140.427 ST 92 937 15 316
1991243N05172 1991 58 WP MM IVY 1991-09-07 00:00:00 TS 25.4000 139.950 90 940 tokyo main 980 920 OOOO__________ jtwc_wp WP171991 25.3000 139.900 110 3 25.5000 140.000 5 90 940 9 150 150 2 400 300 0 25.5000 140.000 5 87 950 25.3000 139.900 ST 95 935 13 314
1991243N05172 1991 58 WP MM IVY 1991-09-07 03:00:00 TS 25.7979 139.434 95 935 tokyo main 916 860 POPP__________ WP171991 25.7997 139.412 112 3 25.8000 139.400 5 95 935 9 150 150 4 400 350 0 25.8496 139.541 5 87 950 25.7423 139.384 ST 95 935 12 315
1991243N05172 1991 58 WP MM IVY 1991-09-07 06:00:00 TS 26.2250 139.025 95 935 tokyo main 860 794 OOOO__________ jtwc_wp WP171991 26.3000 139.000 115 4 26.2000 139.100 5 95 935 9 150 150 3 400 350 0 26.2000 139.100 5 87 950 26.2000 138.900 ST 95 935 12 322
1991243N05172 1991 58 WP MM IVY 1991-09-07 09:00:00 TS 26.7731 138.579 95 935 tokyo main 783 718 POPP__________ WP171991 26.8073 138.635 115 4 26.8000 138.700 5 95 935 9 150 150 3 400 325 0 26.7352 138.571 5 92 945 26.7500 138.413 ST 92 937 13 324
1991243N05172 1991 58 WP MM IVY 1991-09-07 12:00:00 TS 27.3000 138.150 95 935 tokyo main 718 664 OOOO__________ jtwc_wp WP171991 27.3000 138.300 115 4 27.3000 138.200 5 95 935 9 150 150 3 400 325 0 27.3000 138.100 5 97 940 27.3000 138.000 ST 90 940 12 325
1991243N05172 1991 58 WP MM IVY 1991-09-07 15:00:00 TS 27.7699 137.803 95 935 tokyo main 653 605 POPP__________ WP171991 27.7501 137.905 115 4 27.8000 137.800 5 95 935 9 150 150 3 400 325 0 27.7722 137.804 5 97 940 27.7573 137.704 ST 90 940 10 331
1991243N05172 1991 58 WP MM IVY 1991-09-07 18:00:00 TS 28.1750 137.600 95 935 tokyo main 605 556 OOOO__________ jtwc_wp WP171991 28.2000 137.600 115 4 28.1000 137.700 5 95 935 9 150 150 3 350 270 0 28.2000 137.600 5 97 940 28.2000 137.500 ST 90 940 10 340
1991243N05172 1991 58 WP MM IVY 1991-09-07 21:00:00 TS 28.6618 137.428 95 935 tokyo main 545 500 POPP__________ WP171991 28.6923 137.490 112 3 28.7000 137.600 5 95 935 9 150 150 3 350 270 0 28.5700 137.340 5 97 940 28.6849 137.283 ST 90 940 10 346
1991243N05172 1991 58 WP MM IVY 1991-09-08 00:00:00 TS 29.1500 137.325 95 935 tokyo main 489 439 OOOO__________ jtwc_wp WP171991 29.2000 137.500 110 3 29.2000 137.400 5 95 935 9 140 140 3 325 250 0 29.0000 137.200 5 97 940 29.2000 137.200 ST 90 940 10 359
1991243N05172 1991 58 WP MM IVY 1991-09-08 03:00:00 TS 29.7056 137.401 95 935 tokyo main 439 391 POPP__________ WP171991 29.7074 137.498 107 3 29.7000 137.500 5 95 935 9 140 140 3 325 250 0 29.6499 137.267 5 92 945 29.7650 137.339 ST 85 942 11 10
1991243N05172 1991 58 WP MM IVY 1991-09-08 06:00:00 TS 30.2750 137.550 90 940 tokyo main 385 355 OOOO__________ jtwc_wp WP171991 30.2000 137.600 105 3 30.3000 137.500 5 90 940 9 130 130 3 325 250 0 30.3000 137.500 5 87 950 30.3000 137.600 T 80 945 11 20
1991243N05172 1991 58 WP MM IVY 1991-09-08 09:00:00 TS 30.6986 137.813 85 945 tokyo main 355 335 POPP__________ WP171991 30.6574 137.840 105 3 30.7000 137.800 5 85 945 3 150 100 3 325 250 0 30.7224 137.806 5 87 950 30.7147 137.806 T 75 947 10 33
1991243N05172 1991 58 WP MM IVY 1991-09-08 12:00:00 TS 31.1000 138.175 80 950 tokyo main 341 329 OOOO__________ jtwc_wp WP171991 31.1000 138.200 105 3 31.1000 138.200 5 80 950 3 150 100 3 325 250 0 31.1000 138.200 5 87 950 31.1000 138.100 T 70 950 11 38
1991243N05172 1991 58 WP MM IVY 1991-09-08 15:00:00 TS 31.5746 138.600 75 955 tokyo main 329 290 POPP__________ WP171991 31.5495 138.583 105 3 31.6000 138.700 5 75 955 2 150 100 2 325 250 0 31.6069 138.590 5 82 955 31.5422 138.525 T 67 952 13 39
1991243N05172 1991 58 WP MM IVY 1991-09-08 18:00:00 TS 32.0750 139.100 75 955 tokyo main 280 256 OOOO__________ jtwc_wp WP171991 32.0000 139.100 105 3 32.2000 139.100 5 75 955 2 150 100 2 325 250 0 32.1000 139.100 4 77 960 32.0000 139.100 T 65 955 13 48
1991243N05172 1991 58 WP MM IVY 1991-09-08 21:00:00 TS 32.4622 139.784 75 955 tokyo main 251 238 POPP__________ WP171991 32.4572 139.775 100 3 32.5000 139.800 5 75 955 2 150 100 2 325 250 0 32.4423 139.784 4 77 960 32.4494 139.776 T 65 955 15 59
1991243N05172 1991 58 WP MM IVY 1991-09-09 00:00:00 TS 32.8500 140.600 75 955 tokyo main 232 219 OOOO__________ jtwc_wp WP171991 32.9000 140.600 95 2 32.8000 140.600 5 75 955 2 150 100 2 325 250 0 32.8000 140.600 4 77 960 32.9000 140.600 T 65 955 16 58
1991243N05172 1991 58 WP MM IVY 1991-09-09 03:00:00 TS 33.3200 141.446 75 955 tokyo main 225 222 POPP__________ WP171991 33.2984 141.462 87 2 33.3000 141.400 5 75 955 3 150 100 3 325 250 0 33.3329 141.403 4 77 960 33.3488 141.519 T 65 955 18 58
1991243N05172 1991 58 WP MM IVY 1991-09-09 06:00:00 TS 33.8250 142.475 75 960 tokyo main 247 247 OOOO__________ jtwc_wp WP171991 33.7000 142.500 80 1 33.9000 142.400 5 75 960 3 150 100 3 325 250 0 33.9000 142.400 4 77 960 33.8000 142.600 T 65 955 21 65
1991243N05172 1991 58 WP MM IVY 1991-09-09 09:00:00 TS 34.2313 143.770 75 960 tokyo main 312 306 POPP__________ WP171991 34.1340 143.754 75 1 34.2000 143.800 5 75 960 3 150 100 3 325 250 0 34.3577 143.712 4 72 962 34.2334 143.812 T 65 955 24 69
1991243N05172 1991 58 WP MM IVY 1991-09-09 12:00:00 TS 34.6750 145.200 75 960 tokyo main 405 405 OOOO__________ jtwc_wp WP171991 34.6000 145.200 70 1 34.6000 145.200 5 75 960 3 150 100 3 300 230 0 34.8000 145.200 4 68 965 34.7000 145.200 T 65 955 26 69
1991243N05172 1991 58 WP MM IVY 1991-09-09 15:00:00 TS 35.1690 146.703 main 527 527 PPPP__________ WP171991 35.0685 146.743 67 1 35.1363 146.681 5 75 960 3 150 100 3 300 230 35.2595 146.644 4 68 965 35.2116 146.742 T 62 957 28 67
1991243N05172 1991 58 WP MM IVY 1991-09-09 18:00:00 TS 35.7500 148.325 75 960 tokyo main 662 662 OOOO__________ jtwc_wp WP171991 35.6000 148.400 65 1 35.8000 148.300 5 75 960 3 150 100 3 300 230 0 35.8000 148.200 4 68 965 35.8000 148.400 STS 60 960 30 65
1991243N05172 1991 58 WP MM IVY 1991-09-09 21:00:00 TS 36.4209 150.073 main 779 779 PPPP__________ WP171991 36.2110 150.130 62 0 36.5274 150.121 5 70 965 3 125 85 3 312 215 36.4697 149.963 4 68 965 36.4755 150.079 STS 57 965 32 64
1991243N05172 1991 58 WP MM IVY 1991-09-10 00:00:00 TS 37.1467 151.880 65 970 tokyo main 868 864 OOOO__________ jtwc_wp WP171991 36.9000 151.900 60 0 37.3000 152.000 5 65 970 3 100 70 3 325 200 0 37.2000 151.800 4 68 965 37.2000 151.800 STS 55 970 32 63
1991243N05172 1991 58 WP MM IVY 1991-09-10 03:00:00 TS 37.9100 153.663 main 907 900 PPPP__________ WP171991 37.7038 153.750 57 0 38.0988 153.758 5 65 970 3 100 70 3 325 200 37.9264 153.544 4 63 970 37.9125 153.539 STS 55 970 31 62
1991243N05172 1991 58 WP MM IVY 1991-09-10 06:00:00 TS 38.6167 155.392 65 970 tokyo main 908 902 OOOO__________ jtwc_wp WP171991 38.4000 155.400 55 0 38.8000 155.500 5 65 970 3 100 70 3 325 200 0 38.6000 155.300 3 58 975 38.6000 155.300 STS 55 970 30 66
1991243N05172 1991 58 WP MM IVY 1991-09-10 09:00:00 TS 39.1416 157.133 main 942 938 PPP___________ WP171991 38.7938 156.594 55 0 39.2821 157.348 5 62 972 3 95 60 3 325 200 39.1749 157.188 3 53 977 STS 29 71
1991243N05172 1991 58 WP MM IVY 1991-09-10 12:00:00 MX 39.5333 158.878 60 975 tokyo main 1004 1002 OOO___________ jtwc_wp WP171991 39.0000 157.500 55 0 39.6000 159.100 4 60 975 3 90 50 3 325 200 0 39.6000 159.000 9 48 980 27 76
1991243N05172 1991 58 WP MM IVY 1991-09-10 15:00:00 MX 39.7852 160.507 main 1075 1075 _PP___________ WP171991 -1 39.7777 160.528 4 977 3 3 39.7927 160.487 9 43 982 24 79
1991243N05172 1991 58 WP MM IVY 1991-09-10 18:00:00 ET 40.0000 162.000 980 tokyo main 1156 1156 _OO___________ -1 40.0000 162.000 6 980 0 0 0 40.0000 162.000 9 38 985 27 77
1991243N05172 1991 58 WP MM IVY 1991-09-10 21:00:00 ET 40.3841 163.998 main 1256 1256 _PP___________ -1 40.3842 163.995 6 980 0 0 40.3839 164.002 9 33 987 32 72
1991243N05172 1991 58 WP MM IVY 1991-09-11 00:00:00 ET 41.0000 166.000 980 tokyo main 1284 1276 _OO___________ -1 41.0000 166.000 6 980 0 0 0 41.0000 166.000 9 29 990 31 59
1991243N05172 1991 58 WP MM IVY 1991-09-11 03:00:00 ET 41.9657 167.538 main 1271 1259 _PP___________ -1 41.9916 167.499 6 978 0 0 41.9138 167.616 9 29 990 30 48
1991243N05172 1991 58 WP MM IVY 1991-09-11 06:00:00 ET 43.0000 169.000 976 tokyo main 1264 1264 _OO___________ -1 43.0000 169.000 6 976 0 0 0 43.0000 169.000 9 29 990 30 57
1991243N05172 1991 58 WP MM IVY 1991-09-11 09:00:00 ET 43.5750 170.933 main 1312 1312 _P____________ -1 43.5750 170.933 6 976 0 0 9 31 71
1991243N05172 1991 58 WP MM IVY 1991-09-11 12:00:00 ET 44.0000 173.000 976 tokyo main 1379 1379 _O____________ -1 44.0000 173.000 6 976 0 0 0 32 73
1991243N05172 1991 58 WP MM IVY 1991-09-11 15:00:00 ET 44.5028 175.149 main 1446 1350 _P____________ -1 44.5028 175.149 6 974 0 0 30 71
1991243N05172 1991 58 WP MM IVY 1991-09-11 18:00:00 ET 45.0000 177.000 972 tokyo main 1344 1250 _O____________ -1 45.0000 177.000 6 972 0 0 0 23 65
1991243N05172 1991 58 WP MM IVY 1991-09-11 21:00:00 ET 45.4915 178.082 main 1245 1162 _P____________ -1 45.4915 178.082 6 972 0 0 17 55
1991243N05172 1991 58 WP MM IVY 1991-09-12 00:00:00 ET 46.0000 179.000 972 tokyo main 1156 1047 _O____________ -1 46.0000 179.000 6 972 0 0 0 19 57
1991243N05172 1991 58 EP CP IVY 1991-09-12 03:00:00 ET 46.5091 180.341 main 1047 924 _P____________ -1 46.5091 -179.659 6 972 0 0 23 64
1991243N05172 1991 58 EP CP IVY 1991-09-12 06:00:00 ET 47.0000 182.000 main 919 _O____________ -1 47.0000 182.000 6 972 0 0 0 25 67

デジタル台風データ・検索

IBTrACS Databaseについて

本データベースは、米国NOAAが公開する1842年以降の世界の熱帯低気圧のベストトラックデータアーカイブInternational Best Track Archive for Climate Stewardship (IBTrACS)を、ウェブで閲覧しやすい形式に変換したものです。

最終更新日:2021-10-21